Time;durP1;ratioP1;P1;durP2;ratioP2;P2;SDS_P1;SDS_P2;PMS_P1;PMS_P2;Temp;Humidity;BMP_temperature;BMP_pressure;BME280_temperature;BME280_humidity;BME280_pressure;Samples;Min_cycle;Max_cycle;Signal;HPM_P1;HPM_P2
2023/09/03 00:01:44;;;;;;;26.58;20.20;;;18.50;99.90;;;;;;5032301;28;20056;-73
2023/09/03 00:07:30;;;;;;;23.30;20.38;;;18.40;99.90;;;;;;5232651;23;20683;-75
2023/09/03 00:09:56;;;;;;;21.80;18.42;;;18.40;99.90;;;;;;5017437;23;20338;-72
2023/09/03 00:12:21;;;;;;;22.95;18.13;;;18.40;99.90;;;;;;4994937;28;20077;-74
2023/09/03 00:14:47;;;;;;;26.40;18.63;;;18.40;99.90;;;;;;5028613;28;20363;-72
2023/09/03 00:17:14;;;;;;;26.40;19.42;;;18.40;99.90;;;;;;5025496;28;20373;-75
2023/09/03 00:19:41;;;;;;;21.30;17.88;;;18.50;99.90;;;;;;4994412;28;20073;-72
2023/09/03 00:22:07;;;;;;;21.52;18.17;;;18.50;99.90;;;;;;5012669;28;20026;-75
2023/09/03 00:24:33;;;;;;;22.35;18.25;;;18.50;99.90;;;;;;5009053;28;20069;-74
2023/09/03 00:26:59;;;;;;;29.38;18.73;;;18.50;99.90;;;;;;5002045;28;20027;-75
2023/09/03 00:29:24;;;;;;;25.63;19.00;;;18.50;99.90;;;;;;5003755;28;20550;-76
2023/09/03 00:31:50;;;;;;;23.20;18.27;;;18.50;99.90;;;;;;4991852;28;20041;-75
2023/09/03 00:34:16;;;;;;;24.08;18.27;;;18.50;99.90;;;;;;5009985;28;20104;-72
2023/09/03 00:36:42;;;;;;;21.70;17.63;;;18.50;99.90;;;;;;5009703;28;20026;-74
2023/09/03 00:39:08;;;;;;;20.23;17.77;;;18.40;99.90;;;;;;5009995;28;20120;-73
2023/09/03 00:41:33;;;;;;;22.88;17.02;;;18.30;99.90;;;;;;5009735;28;20050;-72
2023/09/03 00:43:59;;;;;;;20.77;16.75;;;18.30;99.90;;;;;;4991949;28;20025;-73
2023/09/03 00:46:25;;;;;;;23.65;18.27;;;18.30;99.90;;;;;;5008051;28;20101;-75
2023/09/03 00:48:51;;;;;;;22.27;17.42;;;18.30;99.90;;;;;;5004245;28;20109;-72
2023/09/03 00:51:17;;;;;;;21.20;18.65;;;18.30;99.90;;;;;;4988525;28;20425;-74
2023/09/03 00:53:49;;;;;;;23.63;17.95;;;18.30;99.90;;;;;;4988743;28;20525;-73
2023/09/03 00:56:15;;;;;;;23.15;18.38;;;18.20;99.90;;;;;;4994640;28;20026;-74
2023/09/03 00:58:41;;;;;;;21.45;17.52;;;18.20;99.90;;;;;;5015867;28;20050;-76
2023/09/03 01:01:09;;;;;;;19.88;16.02;;;18.20;99.90;;;;;;5000645;28;20042;-72
2023/09/03 01:03:35;;;;;;;20.90;16.63;;;18.10;99.90;;;;;;5018544;28;20473;-72
2023/09/03 01:06:02;;;;;;;22.92;16.60;;;18.10;99.90;;;;;;5001363;28;20046;-72
2023/09/03 01:08:28;;;;;;;20.10;16.10;;;18.10;99.90;;;;;;4999616;28;20056;-74
2023/09/03 01:11:10;;;;;;;21.63;17.83;;;18.10;99.90;;;;;;5000901;28;20030;-74
2023/09/03 01:14:06;;;;;;;20.30;17.15;;;18.10;99.90;;;;;;5017917;28;20037;-75
2023/09/03 01:16:54;;;;;;;20.35;16.48;;;18.10;99.90;;;;;;5000150;28;20041;-74
2023/09/03 01:19:48;;;;;;;21.77;17.75;;;18.10;99.90;;;;;;5018173;28;20461;-74
2023/09/03 01:22:40;;;;;;;21.38;18.35;;;18.10;99.90;;;;;;5000240;28;20025;-75
2023/09/03 01:25:20;;;;;;;25.38;18.75;;;18.10;99.90;;;;;;5000819;28;20073;-75
2023/09/03 01:27:50;;;;;;;23.73;19.00;;;18.10;99.90;;;;;;5000995;28;20044;-78
2023/09/03 01:30:17;;;;;;;22.30;18.58;;;18.10;99.90;;;;;;5017996;28;20026;-73
2023/09/03 01:32:45;;;;;;;23.75;18.48;;;18.00;99.90;;;;;;5001059;28;20485;-75
2023/09/03 01:35:11;;;;;;;23.00;18.70;;;18.00;99.90;;;;;;5017954;28;20029;-75
2023/09/03 01:37:37;;;;;;;23.90;18.63;;;17.90;99.90;;;;;;5018377;28;20054;-72
2023/09/03 01:40:04;;;;;;;22.20;18.98;;;17.90;99.90;;;;;;5000594;28;20032;-74
2023/09/03 01:42:30;;;;;;;23.40;18.00;;;17.90;99.90;;;;;;5001089;28;20029;-73
2023/09/03 01:44:55;;;;;;;23.50;19.27;;;17.90;99.90;;;;;;5030915;28;20091;-73
2023/09/03 01:47:36;;;;;;;27.88;18.70;;;17.90;99.90;;;;;;5018263;28;20026;-72
2023/09/03 01:50:02;;;;;;;22.10;18.23;;;17.90;99.90;;;;;;5000721;28;20030;-76
2023/09/03 01:52:38;;;;;;;24.55;18.05;;;17.80;99.90;;;;;;5018094;28;20080;-73
2023/09/03 01:55:08;;;;;;;21.88;16.88;;;17.90;99.90;;;;;;5018243;28;20030;-72
2023/09/03 01:57:51;;;;;;;20.98;16.55;;;17.90;99.90;;;;;;5000344;28;20088;-76
2023/09/03 02:00:18;;;;;;;21.50;17.95;;;17.80;99.90;;;;;;5000424;28;20025;-73
2023/09/03 02:02:46;;;;;;;20.85;17.67;;;17.70;99.90;;;;;;5018593;28;20080;-72
2023/09/03 02:05:13;;;;;;;21.42;18.05;;;17.70;99.90;;;;;;4999626;28;20036;-74
2023/09/03 02:07:39;;;;;;;25.15;18.92;;;17.60;99.90;;;;;;5000275;28;20099;-73
2023/09/03 02:10:06;;;;;;;23.05;18.20;;;17.60;99.90;;;;;;4996763;28;20050;-73
2023/09/03 02:12:32;;;;;;;23.88;19.05;;;17.60;99.90;;;;;;4997198;28;20034;-73
2023/09/03 02:14:57;;;;;;;22.73;19.25;;;17.50;99.90;;;;;;5014984;28;20358;-73
2023/09/03 02:17:24;;;;;;;21.75;18.00;;;17.50;99.90;;;;;;5014535;28;20084;-76
2023/09/03 02:19:52;;;;;;;23.10;19.05;;;17.50;99.90;;;;;;5014956;28;20026;-74
2023/09/03 02:22:19;;;;;;;24.17;19.75;;;17.50;99.90;;;;;;4996734;28;20488;-73
2023/09/03 02:24:44;;;;;;;23.35;19.17;;;17.40;99.90;;;;;;5014872;28;20018;-73
2023/09/03 02:27:11;;;;;;;23.58;19.33;;;17.50;99.90;;;;;;5014692;28;20498;-73
2023/09/03 02:29:38;;;;;;;19.65;16.85;;;17.50;99.90;;;;;;4996513;28;20026;-74
2023/09/03 02:32:08;;;;;;;19.05;16.13;;;17.50;99.90;;;;;;4997087;28;20112;-73
2023/09/03 02:34:36;;;;;;;26.73;19.15;;;17.50;99.90;;;;;;5014514;28;20077;-73
2023/09/03 02:37:04;;;;;;;22.85;18.88;;;17.40;99.90;;;;;;4996861;28;20548;-72
2023/09/03 02:39:30;;;;;;;23.45;19.38;;;17.40;99.90;;;;;;4996432;28;20074;-73
2023/09/03 02:41:57;;;;;;;29.00;21.00;;;17.40;99.90;;;;;;4996792;28;20037;-76
2023/09/03 02:44:23;;;;;;;27.05;20.83;;;17.40;99.90;;;;;;5014267;28;20018;-74
2023/09/03 02:46:49;;;;;;;24.65;19.40;;;17.50;99.90;;;;;;5014317;28;20389;-73
2023/09/03 02:49:15;;;;;;;24.83;20.38;;;17.50;99.90;;;;;;5014294;28;20048;-73
2023/09/03 02:51:42;;;;;;;24.67;19.50;;;17.50;99.90;;;;;;4996520;28;20029;-72
2023/09/03 02:54:08;;;;;;;24.60;18.55;;;17.50;99.90;;;;;;4996132;28;20125;-73
2023/09/03 02:56:34;;;;;;;25.08;20.85;;;17.30;99.90;;;;;;5014097;28;20048;-73
2023/09/03 02:59:00;;;;;;;23.35;18.65;;;17.20;99.90;;;;;;4996524;28;20033;-74
2023/09/03 03:01:26;;;;;;;22.95;18.77;;;17.30;99.90;;;;;;4996044;28;20032;-76
2023/09/03 03:03:52;;;;;;;22.50;18.75;;;17.30;99.90;;;;;;5014308;28;20477;-74
2023/09/03 03:06:18;;;;;;;25.95;19.70;;;17.30;99.90;;;;;;4996183;28;20112;-73
2023/09/03 03:08:44;;;;;;;26.02;18.92;;;17.20;99.90;;;;;;5022285;28;20492;-74
2023/09/03 03:11:15;;;;;;;23.27;18.77;;;17.20;99.90;;;;;;4996488;28;20113;-73
2023/09/03 03:13:47;;;;;;;23.98;18.55;;;17.20;99.90;;;;;;5007811;28;20034;-74
2023/09/03 03:16:15;;;;;;;21.92;17.55;;;17.30;99.90;;;;;;4996176;28;20030;-74
2023/09/03 03:18:45;;;;;;;23.75;18.73;;;17.20;99.90;;;;;;4995762;28;20032;-74
2023/09/03 03:21:22;;;;;;;23.50;18.70;;;17.20;99.90;;;;;;4995941;28;20080;-75
2023/09/03 03:23:52;;;;;;;22.88;17.45;;;17.30;99.90;;;;;;4995649;28;20037;-74
2023/09/03 03:26:26;;;;;;;21.60;17.00;;;17.30;99.90;;;;;;4996190;28;20454;-73
2023/09/03 03:28:52;;;;;;;28.55;18.35;;;17.20;99.90;;;;;;5013183;28;20030;-73
2023/09/03 03:31:19;;;;;;;21.10;17.33;;;17.20;99.90;;;;;;4995193;28;20030;-72
2023/09/03 03:33:48;;;;;;;20.80;15.75;;;17.30;99.90;;;;;;4995864;28;20080;-72
2023/09/03 03:36:19;;;;;;;18.90;15.52;;;17.20;99.90;;;;;;5013312;28;20029;-73
2023/09/03 03:38:45;;;;;;;22.20;17.90;;;17.20;99.90;;;;;;4995332;28;20030;-73
2023/09/03 03:41:13;;;;;;;23.55;18.52;;;17.10;99.90;;;;;;4995023;28;20038;-73
2023/09/03 03:43:43;;;;;;;20.33;17.75;;;17.00;99.90;;;;;;4995528;28;20466;-74
2023/09/03 03:46:10;;;;;;;24.25;16.75;;;17.00;99.90;;;;;;4995636;28;20034;-73
2023/09/03 03:48:39;;;;;;;21.77;17.35;;;17.00;99.90;;;;;;4982682;28;20057;-73
2023/09/03 03:51:05;;;;;;;24.52;17.45;;;17.10;99.90;;;;;;4995795;28;20080;-72
2023/09/03 03:53:31;;;;;;;22.05;17.15;;;17.10;99.90;;;;;;5012892;28;20080;-74
2023/09/03 03:56:04;;;;;;;21.33;17.55;;;17.00;99.90;;;;;;5013194;28;20029;-74
2023/09/03 03:58:33;;;;;;;23.50;18.00;;;17.00;99.90;;;;;;4983370;28;20060;-73
2023/09/03 04:00:59;;;;;;;25.33;19.48;;;17.00;99.90;;;;;;5012980;28;20088;-74
2023/09/03 04:03:27;;;;;;;22.65;17.85;;;17.10;99.90;;;;;;4995332;28;20077;-73
2023/09/03 04:06:00;;;;;;;23.83;17.50;;;17.10;99.90;;;;;;5012547;28;20381;-76
2023/09/03 04:08:32;;;;;;;24.45;18.55;;;17.10;99.90;;;;;;5012430;28;20050;-74
2023/09/03 04:11:02;;;;;;;21.77;17.88;;;17.10;99.90;;;;;;4994628;28;20037;-74
2023/09/03 04:13:29;;;;;;;24.70;18.10;;;17.20;99.90;;;;;;4995236;28;20080;-73
2023/09/03 04:15:55;;;;;;;21.65;17.08;;;17.30;99.90;;;;;;4994749;28;20022;-73
2023/09/03 04:18:22;;;;;;;20.10;16.60;;;17.40;99.90;;;;;;4995052;28;20026;-74
2023/09/03 04:20:56;;;;;;;21.30;15.38;;;17.40;99.90;;;;;;4994757;28;20026;-73
2023/09/03 04:23:24;;;;;;;22.48;16.40;;;17.60;99.90;;;;;;4987127;28;20038;-74
2023/09/03 04:25:51;;;;;;;22.13;15.60;;;18.00;99.90;;;;;;4994133;28;20041;-73
2023/09/03 04:28:18;;;;;;;21.73;15.32;;;18.00;99.90;;;;;;4994689;28;20041;-73
2023/09/03 04:30:44;;;;;;;23.08;15.80;;;18.00;99.90;;;;;;4994890;28;20022;-74
2023/09/03 04:33:10;;;;;;;20.48;15.43;;;18.40;99.90;;;;;;5011938;28;20022;-73
2023/09/03 04:35:38;;;;;;;20.02;15.88;;;18.30;99.90;;;;;;4999934;28;20084;-74
2023/09/03 04:38:05;;;;;;;19.23;15.07;;;18.60;99.90;;;;;;4993838;28;20030;-73
2023/09/03 04:40:36;;;;;;;18.77;13.98;;;19.40;99.90;;;;;;4993007;28;20030;-73
2023/09/03 04:43:04;;;;;;;18.08;13.32;;;19.90;99.90;;;;;;5006237;28;20030;-73
2023/09/03 04:45:32;;;;;;;18.63;13.02;;;20.60;99.90;;;;;;4994421;28;20049;-73
2023/09/03 04:47:59;;;;;;;16.90;12.68;;;21.10;99.90;;;;;;4988618;28;20057;-74
2023/09/03 04:50:25;;;;;;;19.75;13.95;;;21.50;99.90;;;;;;4995266;28;20044;-73
2023/09/03 04:52:55;;;;;;;20.10;14.75;;;21.90;99.90;;;;;;4976573;28;20046;-74
2023/09/03 04:55:22;;;;;;;17.00;11.98;;;22.20;99.90;;;;;;4994170;28;20080;-74
2023/09/03 04:57:49;;;;;;;16.58;11.40;;;22.40;99.90;;;;;;4994088;28;20040;-73
2023/09/03 05:00:15;;;;;;;20.80;11.65;;;22.90;99.50;;;;;;5011893;28;20025;-74
2023/09/03 05:02:42;;;;;;;16.45;12.30;;;23.30;99.00;;;;;;5011945;28;20088;-73
2023/09/03 05:05:09;;;;;;;23.33;11.63;;;23.50;98.10;;;;;;4994526;28;20477;-72
2023/09/03 05:07:36;;;;;;;14.23;11.23;;;23.80;97.50;;;;;;4993743;28;20501;-75
2023/09/03 05:10:02;;;;;;;15.77;11.27;;;24.10;96.00;;;;;;4990875;28;20088;-75
2023/09/03 05:12:29;;;;;;;17.48;11.77;;;24.30;95.50;;;;;;4969581;28;20029;-73
2023/09/03 05:14:54;;;;;;;16.23;10.63;;;24.50;94.80;;;;;;4994405;28;20030;-73
2023/09/03 05:17:21;;;;;;;22.02;12.23;;;24.10;95.20;;;;;;4992263;28;20432;-73
2023/09/03 05:19:48;;;;;;;17.30;12.98;;;22.90;95.70;;;;;;4986670;28;20085;-73
2023/09/03 05:22:15;;;;;;;17.08;12.43;;;22.10;97.30;;;;;;4986528;28;20022;-73
2023/09/03 05:24:41;;;;;;;19.38;12.57;;;21.70;99.40;;;;;;4988864;28;20034;-73
2023/09/03 05:27:08;;;;;;;19.13;12.85;;;21.60;99.90;;;;;;4994135;28;20034;-72
2023/09/03 05:29:34;;;;;;;22.77;13.07;;;21.50;99.90;;;;;;4990035;28;20478;-73
2023/09/03 05:32:00;;;;;;;21.13;13.27;;;21.50;99.90;;;;;;5007979;28;20026;-73
2023/09/03 05:34:27;;;;;;;22.33;12.65;;;21.50;99.90;;;;;;4985799;28;20117;-75
2023/09/03 05:36:54;;;;;;;19.45;15.38;;;21.50;99.90;;;;;;4990012;28;20037;-74
2023/09/03 05:39:19;;;;;;;23.42;14.52;;;21.50;99.90;;;;;;5002355;28;20026;-73
2023/09/03 05:41:45;;;;;;;17.63;14.25;;;21.40;99.90;;;;;;4981588;28;20371;-74
2023/09/03 05:44:12;;;;;;;19.88;15.13;;;21.30;99.90;;;;;;4989449;28;20033;-74
2023/09/03 05:46:39;;;;;;;19.10;14.70;;;21.20;99.90;;;;;;5001975;28;20385;-73
2023/09/03 05:49:05;;;;;;;20.90;14.27;;;21.00;99.90;;;;;;4997597;28;20038;-73
2023/09/03 05:51:32;;;;;;;22.02;14.77;;;21.30;99.90;;;;;;4984717;28;20026;-73
2023/09/03 05:53:58;;;;;;;19.25;14.85;;;21.30;99.90;;;;;;5015258;28;20030;-73
2023/09/03 05:56:24;;;;;;;21.65;14.23;;;21.20;99.90;;;;;;4985649;28;20029;-73
2023/09/03 05:58:51;;;;;;;23.77;16.05;;;21.10;99.90;;;;;;4991095;28;20679;-74
2023/09/03 06:01:18;;;;;;;25.42;15.75;;;21.00;99.90;;;;;;4990835;28;20049;-76
2023/09/03 06:03:43;;;;;;;23.60;15.43;;;21.20;99.90;;;;;;5004266;28;20045;-73
2023/09/03 06:06:13;;;;;;;22.70;14.77;;;21.10;99.90;;;;;;4990133;28;20038;-74
2023/09/03 06:08:41;;;;;;;20.45;14.63;;;21.20;99.90;;;;;;4990761;28;20057;-72
2023/09/03 06:11:08;;;;;;;20.77;14.23;;;21.30;99.90;;;;;;4995611;28;20042;-74
2023/09/03 06:13:34;;;;;;;22.48;14.73;;;21.50;99.90;;;;;;5010030;28;20121;-73
2023/09/03 06:16:00;;;;;;;18.92;13.15;;;21.70;99.90;;;;;;5005251;28;20106;-74
2023/09/03 06:18:26;;;;;;;20.33;14.82;;;21.90;99.90;;;;;;5007906;28;20377;-74
2023/09/03 06:20:52;;;;;;;19.17;13.57;;;22.10;99.90;;;;;;5008504;28;20434;-72
2023/09/03 06:23:19;;;;;;;18.48;13.52;;;22.30;99.90;;;;;;5006145;28;20057;-72
2023/09/03 06:25:46;;;;;;;17.33;13.75;;;22.20;99.90;;;;;;5009254;28;20026;-74
2023/09/03 06:28:12;;;;;;;21.70;13.73;;;22.50;99.90;;;;;;5013790;28;20099;-73
2023/09/03 06:30:38;;;;;;;19.67;13.52;;;22.50;99.90;;;;;;5010156;28;20037;-75
2023/09/03 06:33:04;;;;;;;18.33;13.70;;;22.60;99.90;;;;;;5014483;28;20030;-76
2023/09/03 06:35:30;;;;;;;19.30;13.27;;;22.50;99.90;;;;;;5021380;28;20117;-75
2023/09/03 06:37:57;;;;;;;18.52;13.95;;;22.70;99.90;;;;;;5013825;28;20482;-73
2023/09/03 06:40:23;;;;;;;20.48;14.52;;;22.70;99.90;;;;;;5012857;28;20030;-75
2023/09/03 06:42:49;;;;;;;23.25;15.18;;;22.80;99.90;;;;;;5013970;28;20026;-74
2023/09/03 06:45:15;;;;;;;19.20;13.93;;;23.00;99.90;;;;;;4996214;28;20130;-74
2023/09/03 06:47:40;;;;;;;23.38;14.35;;;23.20;99.90;;;;;;5010118;28;20026;-75
2023/09/03 06:50:07;;;;;;;18.92;13.02;;;23.50;99.90;;;;;;5014238;28;20461;-73
2023/09/03 06:52:34;;;;;;;16.60;12.93;;;23.40;99.90;;;;;;5013804;28;20037;-76
2023/09/03 06:55:01;;;;;;;19.48;13.57;;;23.50;99.90;;;;;;5011252;28;20477;-75
2023/09/03 06:57:27;;;;;;;16.35;12.77;;;23.60;99.90;;;;;;5005798;28;20100;-75
2023/09/03 06:59:52;;;;;;;17.00;11.60;;;23.50;99.90;;;;;;5013523;28;20097;-74
2023/09/03 07:02:18;;;;;;;17.10;12.23;;;23.80;99.90;;;;;;5011682;28;20038;-76
2023/09/03 07:04:44;;;;;;;15.15;11.85;;;23.90;99.90;;;;;;5009664;28;20575;-74
2023/09/03 07:07:10;;;;;;;16.70;10.80;;;24.00;99.90;;;;;;5011523;28;20049;-74
2023/09/03 07:09:35;;;;;;;13.57;9.50;;;23.90;99.90;;;;;;5012677;28;20057;-75
2023/09/03 07:12:02;;;;;;;13.38;10.10;;;24.00;99.10;;;;;;5014180;28;20034;-76
2023/09/03 07:14:35;;;;;;;14.43;9.52;;;24.10;99.90;;;;;;5014051;28;20037;-76
2023/09/03 07:17:01;;;;;;;15.27;9.32;;;24.20;99.70;;;;;;5010284;28;20384;-74
2023/09/03 07:19:28;;;;;;;12.95;9.35;;;24.50;98.80;;;;;;5004589;28;20018;-75
2023/09/03 07:21:54;;;;;;;16.13;8.75;;;24.60;98.50;;;;;;4994362;28;20029;-75
2023/09/03 07:24:20;;;;;;;17.42;9.60;;;24.60;98.60;;;;;;5011499;28;20080;-73
2023/09/03 07:26:46;;;;;;;13.07;9.05;;;24.60;98.10;;;;;;5003629;28;20386;-73
2023/09/03 07:29:13;;;;;;;13.80;8.73;;;24.80;97.70;;;;;;5009488;28;20053;-73
2023/09/03 07:31:43;;;;;;;14.88;9.48;;;24.90;98.50;;;;;;4984033;28;20039;-73
2023/09/03 07:34:10;;;;;;;16.63;9.68;;;25.10;97.80;;;;;;4998913;28;20026;-73
2023/09/03 07:36:36;;;;;;;12.35;7.60;;;25.40;98.00;;;;;;4990828;28;20029;-73
2023/09/03 07:39:05;;;;;;;13.45;8.35;;;25.40;95.60;;;;;;5012511;28;20058;-73
2023/09/03 07:41:35;;;;;;;15.07;8.25;;;25.50;97.20;;;;;;5013246;28;20488;-74
2023/09/03 07:44:01;;;;;;;11.80;7.63;;;25.80;94.60;;;;;;5013032;28;20041;-73
2023/09/03 07:46:27;;;;;;;12.68;7.63;;;26.00;96.10;;;;;;5011454;28;20030;-74
2023/09/03 07:48:53;;;;;;;12.98;7.93;;;26.30;96.00;;;;;;5012955;28;20160;-73
2023/09/03 07:51:21;;;;;;;11.10;8.15;;;26.40;94.20;;;;;;5005444;28;20046;-73
2023/09/03 07:53:47;;;;;;;11.00;7.78;;;26.50;95.20;;;;;;5011524;28;20026;-73
2023/09/03 07:56:17;;;;;;;12.57;7.55;;;26.20;94.40;;;;;;5012280;28;20112;-73
2023/09/03 07:58:43;;;;;;;13.07;7.28;;;26.40;94.60;;;;;;5013274;28;20026;-73
2023/09/03 08:01:11;;;;;;;10.95;7.30;;;26.30;94.10;;;;;;5012820;28;20014;-76
2023/09/03 08:03:43;;;;;;;10.07;7.10;;;26.40;93.80;;;;;;5010441;28;20040;-74
2023/09/03 08:06:10;;;;;;;11.25;7.13;;;26.30;93.50;;;;;;5010070;28;20021;-74
2023/09/03 08:08:38;;;;;;;12.02;7.70;;;26.50;95.50;;;;;;5009530;28;20076;-75
2023/09/03 08:11:04;;;;;;;18.83;7.32;;;26.50;95.20;;;;;;5012455;28;20065;-73
2023/09/03 08:13:29;;;;;;;14.18;7.43;;;26.50;94.50;;;;;;5012843;28;20069;-73
2023/09/03 08:15:55;;;;;;;12.90;7.28;;;26.70;93.90;;;;;;5007829;28;20010;-74
2023/09/03 08:18:21;;;;;;;15.77;7.22;;;26.70;93.70;;;;;;5010837;28;20022;-76
2023/09/03 08:20:49;;;;;;;15.45;6.80;;;26.70;93.30;;;;;;4994606;28;20166;-73
2023/09/03 08:23:15;;;;;;;9.27;6.82;;;26.80;91.80;;;;;;5009482;28;20030;-74
2023/09/03 08:25:41;;;;;;;11.63;6.90;;;26.80;92.60;;;;;;5012729;28;20022;-74
2023/09/03 08:28:11;;;;;;;10.77;6.63;;;26.90;91.90;;;;;;5010975;28;20030;-76
2023/09/03 08:30:38;;;;;;;10.20;6.28;;;26.90;92.60;;;;;;5012452;28;20108;-74
2023/09/03 08:33:04;;;;;;;15.38;6.22;;;26.90;91.90;;;;;;5012520;28;20068;-75
2023/09/03 08:35:30;;;;;;;15.70;6.57;;;27.20;91.30;;;;;;5012300;28;20053;-73
2023/09/03 08:37:56;;;;;;;9.50;6.30;;;27.50;92.30;;;;;;5011871;28;20076;-76
2023/09/03 08:40:23;;;;;;;10.60;6.00;;;27.60;91.50;;;;;;5010788;28;20026;-73
2023/09/03 08:42:50;;;;;;;10.75;6.75;;;27.40;91.20;;;;;;4993902;28;20046;-73
2023/09/03 08:45:17;;;;;;;9.68;6.30;;;27.60;90.00;;;;;;5012290;28;20017;-73
2023/09/03 08:47:44;;;;;;;9.65;6.18;;;27.50;92.10;;;;;;5012003;28;20030;-74
2023/09/03 08:50:15;;;;;;;9.07;6.03;;;27.50;90.70;;;;;;5011582;28;20113;-73
2023/09/03 08:52:43;;;;;;;12.65;7.20;;;27.60;88.50;;;;;;5012092;28;20140;-73
2023/09/03 08:55:13;;;;;;;13.18;7.28;;;27.40;87.90;;;;;;5001661;28;20484;-76
2023/09/03 08:57:39;;;;;;;10.15;6.80;;;27.30;89.80;;;;;;5011469;28;20077;-76
2023/09/03 09:00:07;;;;;;;10.45;7.47;;;27.10;89.00;;;;;;4976376;28;20253;-75
2023/09/03 09:02:34;;;;;;;10.98;6.63;;;27.20;90.50;;;;;;5012025;28;20104;-73
2023/09/03 09:05:02;;;;;;;11.50;7.82;;;27.20;89.10;;;;;;5012300;28;20168;-73
2023/09/03 09:07:28;;;;;;;11.93;6.97;;;27.20;90.40;;;;;;5004815;28;20046;-74
2023/09/03 09:09:58;;;;;;;11.57;6.70;;;27.20;88.00;;;;;;5011692;28;20485;-73
2023/09/03 09:12:41;;;;;;;12.27;7.93;;;27.20;88.80;;;;;;5008397;28;20441;-73
2023/09/03 09:15:07;;;;;;;14.65;6.95;;;27.40;90.00;;;;;;4999568;28;20075;-73
2023/09/03 09:17:51;;;;;;;13.65;7.75;;;27.50;89.60;;;;;;5012155;28;20030;-73
2023/09/03 09:20:18;;;;;;;15.45;7.20;;;27.80;88.40;;;;;;5015051;28;20469;-74
2023/09/03 09:22:50;;;;;;;11.52;7.32;;;27.90;89.40;;;;;;5015917;28;20164;-73
2023/09/03 09:25:21;;;;;;;10.65;7.15;;;27.70;87.00;;;;;;5014636;28;20037;-73
2023/09/03 09:27:48;;;;;;;8.25;6.18;;;27.90;88.00;;;;;;5007009;28;20484;-73
2023/09/03 09:30:16;;;;;;;10.30;6.43;;;28.00;86.90;;;;;;5015433;28;20034;-76
2023/09/03 09:32:43;;;;;;;11.50;6.95;;;28.20;84.80;;;;;;5011391;28;20034;-74
2023/09/03 09:35:10;;;;;;;9.85;7.20;;;28.20;82.10;;;;;;5014223;28;20026;-73
2023/09/03 09:37:40;;;;;;;10.88;7.00;;;28.30;81.90;;;;;;5014981;28;20044;-74
2023/09/03 09:40:10;;;;;;;10.77;6.53;;;28.40;81.70;;;;;;5015222;28;20026;-74
2023/09/03 09:42:52;;;;;;;10.75;7.03;;;28.50;79.90;;;;;;5018814;28;20107;-77
2023/09/03 09:45:17;;;;;;;29.80;6.88;;;28.60;80.50;;;;;;5023091;28;20030;-73
2023/09/03 09:47:43;;;;;;;16.80;7.22;;;28.70;80.50;;;;;;5007650;28;20037;-73
2023/09/03 09:50:09;;;;;;;12.13;6.63;;;28.60;79.00;;;;;;5015729;28;20061;-76
2023/09/03 09:52:36;;;;;;;12.50;6.90;;;28.60;79.50;;;;;;5015025;28;20389;-72
2023/09/03 09:55:02;;;;;;;12.32;6.75;;;28.60;80.90;;;;;;5015103;28;20026;-73
2023/09/03 09:57:28;;;;;;;11.57;5.95;;;;;;;;;;5013645;28;20036;-74
2023/09/03 10:00:03;;;;;;;13.68;5.78;;;28.90;80.50;;;;;;5010171;28;20088;-72
2023/09/03 10:02:29;;;;;;;9.70;6.00;;;;;;;;;;5014580;28;20108;-72
2023/09/03 10:04:56;;;;;;;9.27;5.72;;;29.00;77.60;;;;;;5015396;28;20489;-73
2023/09/03 10:07:22;;;;;;;8.30;5.10;;;28.90;75.90;;;;;;5012975;28;20041;-73
2023/09/03 10:09:48;;;;;;;7.93;5.10;;;;;;;;;;5009533;28;20413;-72
2023/09/03 10:12:14;;;;;;;10.68;5.57;;;29.20;77.40;;;;;;5014908;28;20061;-73
2023/09/03 10:14:40;;;;;;;8.25;5.45;;;29.40;75.50;;;;;;5014733;28;20184;-73
2023/09/03 10:17:08;;;;;;;9.50;6.07;;;29.40;76.00;;;;;;4996876;28;20053;-73
2023/09/03 10:19:51;;;;;;;10.43;5.78;;;29.30;74.30;;;;;;5003815;28;20029;-74
2023/09/03 10:22:19;;;;;;;9.20;5.43;;;29.30;74.40;;;;;;5013828;28;20029;-73
2023/09/03 10:25:06;;;;;;;7.55;5.10;;;29.40;73.80;;;;;;5014620;28;20038;-73
2023/09/03 10:27:39;;;;;;;8.52;5.00;;;29.40;73.70;;;;;;5014489;28;20030;-74
2023/09/03 10:30:09;;;;;;;7.35;5.25;;;29.30;73.10;;;;;;5010512;28;20366;-73
2023/09/03 10:32:36;;;;;;;6.25;4.65;;;29.60;73.00;;;;;;5014289;28;20088;-74
2023/09/03 10:35:12;;;;;;;6.95;5.07;;;;;;;;;;5014332;28;20026;-74
2023/09/03 10:37:40;;;;;;;8.43;4.90;;;;;;;;;;5014032;28;20044;-74
2023/09/03 10:40:21;;;;;;;9.38;5.60;;;;;;;;;;5011259;28;20044;-73
2023/09/03 10:42:49;;;;;;;8.27;6.20;;;;;;;;;;5010018;28;20101;-73
2023/09/03 10:45:15;;;;;;;7.57;5.55;;;30.00;74.80;;;;;;4994729;28;20169;-74
2023/09/03 10:48:05;;;;;;;8.65;5.95;;;29.90;74.20;;;;;;5010691;28;20037;-73
2023/09/03 10:50:48;;;;;;;10.93;5.45;;;29.80;72.70;;;;;;5013235;28;20470;-75
2023/09/03 10:53:40;;;;;;;10.80;6.18;;;;;;;;;;5014052;28;20068;-74
2023/09/03 10:56:19;;;;;;;11.05;6.28;;;30.00;79.00;;;;;;5004125;28;20042;-74
2023/09/03 10:59:11;;;;;;;7.78;5.80;;;;;;;;;;5001676;28;20034;-73
2023/09/03 11:01:37;;;;;;;11.45;5.95;;;;;;;;;;4992325;28;20052;-73
2023/09/03 11:04:04;;;;;;;9.18;5.95;;;30.00;72.80;;;;;;4995732;28;20495;-74
2023/09/03 11:06:34;;;;;;;13.60;6.10;;;30.20;74.30;;;;;;5009423;28;20052;-73
2023/09/03 11:09:03;;;;;;;9.73;5.87;;;30.30;74.30;;;;;;5000602;28;20109;-73
2023/09/03 11:11:35;;;;;;;8.63;5.68;;;30.50;75.50;;;;;;4982863;28;20049;-73
2023/09/03 11:14:01;;;;;;;8.65;5.68;;;30.30;72.00;;;;;;4995193;28;20034;-73
2023/09/03 11:16:34;;;;;;;9.20;5.20;;;30.60;73.00;;;;;;5012128;28;20036;-73
2023/09/03 11:19:07;;;;;;;10.77;5.68;;;30.60;72.90;;;;;;4995139;28;20036;-73
2023/09/03 11:21:34;;;;;;;5.43;3.70;;;30.90;70.30;;;;;;5010418;28;20476;-73
2023/09/03 11:24:04;;;;;;;6.70;5.43;;;;;;;;;;5010596;28;20030;-74
2023/09/03 11:26:31;;;;;;;7.32;4.85;;;31.20;70.30;;;;;;5011123;28;20022;-73
2023/09/03 11:28:57;;;;;;;6.80;5.10;;;31.30;70.70;;;;;;4995368;28;20041;-74
2023/09/03 11:31:24;;;;;;;5.32;4.43;;;31.30;68.40;;;;;;5013851;28;20021;-74
2023/09/03 11:33:50;;;;;;;7.00;5.10;;;31.30;67.10;;;;;;5013202;28;20034;-74
2023/09/03 11:36:21;;;;;;;10.48;5.70;;;31.20;69.10;;;;;;5013488;28;20054;-73
2023/09/03 11:38:55;;;;;;;7.72;5.50;;;31.10;68.30;;;;;;5013166;28;20523;-73
2023/09/03 11:41:21;;;;;;;7.95;5.45;;;31.00;69.70;;;;;;5013487;28;20030;-73
2023/09/03 11:43:47;;;;;;;8.32;5.43;;;31.00;73.00;;;;;;5013089;28;20488;-75
2023/09/03 11:46:15;;;;;;;13.15;6.00;;;31.20;72.60;;;;;;5012878;28;20033;-73
2023/09/03 11:48:47;;;;;;;9.65;5.97;;;31.30;71.80;;;;;;5013126;28;20041;-73
2023/09/03 11:51:25;;;;;;;7.18;4.72;;;31.00;68.60;;;;;;5012935;28;20018;-74
2023/09/03 11:53:51;;;;;;;8.70;5.55;;;31.00;67.70;;;;;;5000631;28;20036;-73
2023/09/03 11:56:20;;;;;;;7.50;5.25;;;31.00;69.40;;;;;;5008866;28;20441;-74
2023/09/03 11:58:50;;;;;;;7.30;4.53;;;31.00;68.60;;;;;;5008639;28;20022;-74
2023/09/03 12:01:18;;;;;;;6.80;3.97;;;30.80;69.60;;;;;;5007430;28;20022;-73
2023/09/03 12:03:44;;;;;;;7.65;4.47;;;30.70;70.00;;;;;;5007358;28;20022;-75
2023/09/03 12:06:10;;;;;;;7.55;4.43;;;30.70;68.70;;;;;;4989156;28;20022;-75
2023/09/03 12:08:36;;;;;;;6.32;4.50;;;30.90;70.20;;;;;;5002669;28;20056;-74
2023/09/03 12:11:02;;;;;;;13.40;4.45;;;30.80;68.40;;;;;;5008645;28;20034;-72
2023/09/03 12:13:32;;;;;;;6.93;3.83;;;30.80;66.50;;;;;;4982338;28;20030;-73
2023/09/03 12:16:06;;;;;;;4.85;3.85;;;30.70;66.10;;;;;;4994841;28;20484;-74
2023/09/03 12:18:33;;;;;;;4.97;3.95;;;30.60;69.00;;;;;;5012632;28;20030;-73
2023/09/03 12:20:59;;;;;;;9.23;4.43;;;30.60;68.50;;;;;;5012657;28;20488;-73
2023/09/03 12:23:26;;;;;;;5.70;3.95;;;30.60;67.70;;;;;;5012582;28;20045;-73
2023/09/03 12:25:52;;;;;;;7.20;4.25;;;30.60;66.30;;;;;;5012592;28;20037;-73
2023/09/03 12:28:18;;;;;;;8.45;3.88;;;30.70;67.30;;;;;;5012214;28;20041;-73
2023/09/03 12:30:55;;;;;;;6.72;3.85;;;30.60;65.60;;;;;;5012349;28;20026;-73
2023/09/03 12:33:22;;;;;;;5.47;3.92;;;30.60;66.50;;;;;;5012184;28;20021;-74
2023/09/03 12:36:13;;;;;;;7.65;4.22;;;30.40;71.20;;;;;;4977854;28;20042;-73
2023/09/03 12:38:56;;;;;;;5.97;4.20;;;30.30;68.50;;;;;;5011965;28;20477;-74
2023/09/03 12:41:28;;;;;;;6.47;4.20;;;30.30;68.50;;;;;;5012085;28;20508;-73
2023/09/03 12:43:55;;;;;;;3.28;2.90;;;30.20;69.30;;;;;;4994555;28;20054;-74
2023/09/03 12:46:21;;;;;;;6.38;4.03;;;30.20;66.70;;;;;;5012295;28;20017;-73